createdAt,value
2023-04-12T00:01:08.084Z,33.40
2023-04-12T00:03:41.741Z,32.25
2023-04-12T00:06:13.790Z,31.75
2023-04-12T00:08:50.148Z,31.69
2023-04-12T00:11:22.146Z,32.80
2023-04-12T00:13:54.488Z,31.96
2023-04-12T00:16:26.716Z,31.31
2023-04-12T00:18:59.013Z,31.45
2023-04-12T00:21:31.312Z,32.37
2023-04-12T00:24:03.793Z,32.03
2023-04-12T00:26:36.806Z,31.94
2023-04-12T00:29:09.084Z,31.69
2023-04-12T00:31:42.539Z,32.95
2023-04-12T00:34:13.545Z,33.38
2023-04-12T00:36:43.913Z,33.57
2023-04-12T00:39:14.368Z,33.87
2023-04-12T00:41:44.746Z,33.41
2023-04-12T00:44:15.696Z,34.61
2023-04-12T00:46:47.823Z,35.24
2023-04-12T00:49:18.339Z,32.92
2023-04-12T00:51:48.772Z,34.68
2023-04-12T00:54:19.920Z,36.02
2023-04-12T00:56:51.472Z,35.25
2023-04-12T00:59:22.094Z,36.05
2023-04-12T01:01:54.290Z,36.07
2023-04-12T01:04:27.842Z,35.71
2023-04-12T01:07:16.934Z,37.02
2023-04-12T01:10:20.323Z,35.27
2023-04-12T01:13:25.684Z,36.21
2023-04-12T01:16:21.430Z,35.29
2023-04-12T01:18:54.040Z,35.69
2023-04-12T01:21:51.933Z,35.21
2023-04-12T01:24:54.455Z,36.26
2023-04-12T01:27:48.560Z,34.99
2023-04-12T01:30:21.495Z,35.00
2023-04-12T01:32:55.313Z,35.23
2023-04-12T01:35:32.438Z,36.20
2023-04-12T01:38:05.332Z,37.20
2023-04-12T01:40:37.539Z,36.26
2023-04-12T01:43:09.964Z,36.88
2023-04-12T01:45:42.011Z,35.74
2023-04-12T01:48:14.373Z,36.32
2023-04-12T01:50:53.667Z,34.03
2023-04-12T01:53:54.205Z,33.72
2023-04-12T01:56:26.987Z,34.90
2023-04-12T01:58:59.331Z,34.90
2023-04-12T02:01:31.328Z,33.58
2023-04-12T02:04:03.994Z,33.40
2023-04-12T02:06:36.137Z,33.44
2023-04-12T02:09:10.215Z,33.05
2023-04-12T02:11:40.711Z,31.92
2023-04-12T02:14:13.080Z,31.42
2023-04-12T02:16:47.302Z,32.13
2023-04-12T02:19:18.050Z,31.46
2023-04-12T02:21:48.623Z,32.36
2023-04-12T02:24:19.741Z,32.38
2023-04-12T02:26:52.929Z,33.05
2023-04-12T02:29:25.417Z,31.13
2023-04-12T02:31:56.050Z,31.51
2023-04-12T02:34:32.825Z,29.50
2023-04-12T02:37:15.213Z,31.02
2023-04-12T02:39:46.278Z,31.39
2023-04-12T02:42:17.379Z,30.61
2023-04-12T02:44:51.589Z,30.96
2023-04-12T02:47:23.086Z,30.79
2023-04-12T02:49:53.491Z,30.51
2023-04-12T02:52:26.020Z,29.95
2023-04-12T02:55:06.365Z,30.09
2023-04-12T02:57:36.974Z,29.46
2023-04-12T03:00:15.375Z,28.67
2023-04-12T03:02:53.156Z,30.19
2023-04-12T03:05:28.881Z,29.17
2023-04-12T03:07:59.731Z,29.50
2023-04-12T03:10:39.994Z,27.88
2023-04-12T03:13:10.357Z,29.86
2023-04-12T03:15:45.284Z,28.86
2023-04-12T03:18:16.431Z,29.55
2023-04-12T03:20:50.524Z,29.14
2023-04-12T03:23:22.028Z,30.12
2023-04-12T03:26:17.589Z,29.46
2023-04-12T03:29:11.333Z,29.46
2023-04-12T03:31:44.206Z,29.32
2023-04-12T03:34:15.827Z,28.18
2023-04-12T03:36:51.276Z,28.14
2023-04-12T03:39:35.572Z,29.66
2023-04-12T03:42:06.454Z,29.17
2023-04-12T03:44:38.018Z,28.87
2023-04-12T03:47:13.692Z,28.22
2023-04-12T03:49:51.642Z,28.60
2023-04-12T03:52:28.269Z,28.74
2023-04-12T03:54:58.910Z,29.46
2023-04-12T03:57:30.585Z,28.52
2023-04-12T04:00:02.168Z,28.25
2023-04-12T04:02:48.811Z,27.58
2023-04-12T04:05:20.151Z,27.55
2023-04-12T04:07:51.180Z,28.35
2023-04-12T04:10:21.915Z,28.69
2023-04-12T04:12:53.126Z,27.74
2023-04-12T04:15:23.599Z,27.23
2023-04-12T04:17:54.204Z,27.58
2023-04-12T04:20:26.012Z,27.87
2023-04-12T04:22:57.735Z,27.97
2023-04-12T04:25:31.475Z,28.04
2023-04-12T04:28:05.353Z,27.87
2023-04-12T04:30:40.264Z,26.86
2023-04-12T04:33:20.851Z,27.66
2023-04-12T04:35:53.297Z,28.07
2023-04-12T04:38:29.997Z,28.09
2023-04-12T04:41:11.907Z,28.95
2023-04-12T04:43:57.028Z,30.08
2023-04-12T04:46:32.498Z,30.26
2023-04-12T04:49:03.947Z,30.95
2023-04-12T04:51:35.018Z,30.90
2023-04-12T04:54:07.352Z,30.47
2023-04-12T04:56:40.615Z,30.57
2023-04-12T04:59:12.123Z,29.95
2023-04-12T05:01:44.779Z,30.25
2023-04-12T05:04:19.111Z,29.88
2023-04-12T05:06:50.257Z,28.09
2023-04-12T05:09:24.692Z,29.69
2023-04-12T05:11:59.296Z,27.96
2023-04-12T05:14:44.083Z,30.20
2023-04-12T05:17:21.406Z,31.31
2023-04-12T05:19:51.894Z,31.36
2023-04-12T05:22:23.208Z,31.89
2023-04-12T05:24:53.971Z,34.46
2023-04-12T05:27:24.733Z,32.79
2023-04-12T05:29:56.436Z,32.38
2023-04-12T05:32:28.672Z,31.88
2023-04-12T05:34:59.184Z,29.24
2023-04-12T05:37:30.749Z,31.77
2023-04-12T05:40:02.197Z,30.20
2023-04-12T05:42:32.985Z,31.35
2023-04-12T05:45:03.906Z,31.90
2023-04-12T05:47:39.382Z,29.75
2023-04-12T05:50:12.979Z,30.16
2023-04-12T05:52:44.204Z,32.32
2023-04-12T05:55:15.477Z,32.44
2023-04-12T05:57:48.404Z,31.96
2023-04-12T06:00:22.987Z,33.38
2023-04-12T06:02:53.947Z,32.62
2023-04-12T06:05:25.534Z,31.94
2023-04-12T06:07:56.312Z,30.27
2023-04-12T06:10:27.138Z,30.05
2023-04-12T06:12:57.645Z,29.81
2023-04-12T06:15:28.301Z,30.97
2023-04-12T06:18:01.078Z,30.23
2023-04-12T06:20:32.105Z,29.43
2023-04-12T06:23:02.711Z,30.63
2023-04-12T06:25:33.284Z,30.72
2023-04-12T06:28:04.456Z,30.94
2023-04-12T06:30:40.842Z,31.26
2023-04-12T06:33:12.927Z,29.73
2023-04-12T06:35:44.378Z,30.07
2023-04-12T06:38:15.411Z,29.86
2023-04-12T06:40:45.896Z,29.83
2023-04-12T06:43:21.804Z,28.64
2023-04-12T06:45:52.319Z,28.09
2023-04-12T06:48:23.001Z,28.72
2023-04-12T06:50:53.938Z,27.85
2023-04-12T06:53:24.527Z,27.36
2023-04-12T06:55:55.923Z,27.36
2023-04-12T06:58:26.354Z,27.55
2023-04-12T07:00:57.061Z,27.77
2023-04-12T07:03:30.399Z,28.00
2023-04-12T07:06:21.456Z,28.43
2023-04-12T07:08:54.918Z,28.08
2023-04-12T07:11:26.012Z,27.87
2023-04-12T07:14:00.671Z,27.93
2023-04-12T07:16:35.706Z,27.83
2023-04-12T07:19:06.910Z,28.05
2023-04-12T07:21:37.323Z,27.04
2023-04-12T07:24:07.803Z,27.93
2023-04-12T07:26:38.206Z,27.05
2023-04-12T07:29:08.958Z,27.49
2023-04-12T07:31:39.576Z,27.22
2023-04-12T07:34:10.217Z,27.09
2023-04-12T07:36:40.993Z,27.13
2023-04-12T07:39:13.602Z,27.89
2023-04-12T07:41:51.232Z,27.46
2023-04-12T07:44:24.672Z,27.42
2023-04-12T07:46:55.100Z,27.54
2023-04-12T07:49:25.455Z,27.86
2023-04-12T07:51:56.039Z,27.40
2023-04-12T07:54:30.444Z,27.22
2023-04-12T07:57:05.336Z,26.79
2023-04-12T07:59:36.022Z,27.57
2023-04-12T08:02:07.730Z,27.63
2023-04-12T08:04:45.667Z,27.71
2023-04-12T08:07:17.545Z,27.22
2023-04-12T08:09:49.031Z,28.10
2023-04-12T08:12:19.518Z,27.12
2023-04-12T08:14:50.031Z,27.97
2023-04-12T08:17:20.943Z,27.41
2023-04-12T08:19:51.596Z,27.10
2023-04-12T08:22:22.776Z,27.03
2023-04-12T08:24:53.320Z,27.85
2023-04-12T08:27:24.001Z,27.59
2023-04-12T08:29:54.515Z,27.92
2023-04-12T08:32:25.218Z,27.78
2023-04-12T08:34:56.968Z,27.60
2023-04-12T08:37:27.561Z,26.92
2023-04-12T08:39:58.338Z,27.56
2023-04-12T08:42:29.297Z,26.50
2023-04-12T08:45:00.157Z,26.43
2023-04-12T08:47:30.779Z,26.61
2023-04-12T08:50:02.525Z,25.92
2023-04-12T08:52:37.247Z,26.40
2023-04-12T08:55:09.172Z,26.68
2023-04-12T08:57:43.196Z,26.56
2023-04-12T09:00:16.146Z,26.52
2023-04-12T09:02:48.684Z,27.39
2023-04-12T09:05:20.522Z,27.99
2023-04-12T09:07:50.968Z,26.95
2023-04-12T09:10:41.547Z,26.95
2023-04-12T09:13:14.625Z,26.82
2023-04-12T09:15:52.754Z,27.42
2023-04-12T09:18:24.704Z,27.52
2023-04-12T09:21:13.329Z,27.45
2023-04-12T09:23:44.261Z,27.50
2023-04-12T09:26:31.384Z,27.74
2023-04-12T09:29:02.546Z,27.28
2023-04-12T09:31:33.781Z,27.76
2023-04-12T09:34:12.989Z,27.37
2023-04-12T09:36:44.733Z,27.69
2023-04-12T09:39:15.140Z,27.66
2023-04-12T09:41:46.232Z,27.52
2023-04-12T09:44:32.110Z,27.33
2023-04-12T09:47:06.886Z,28.12
2023-04-12T09:49:46.422Z,27.31
2023-04-12T09:52:17.565Z,28.15
2023-04-12T09:54:52.464Z,28.03
2023-04-12T09:57:26.010Z,27.32
2023-04-12T10:00:00.937Z,28.20
2023-04-12T10:02:33.902Z,27.54
2023-04-12T10:05:05.427Z,27.23
2023-04-12T10:07:39.344Z,27.72
2023-04-12T10:10:11.128Z,27.15
2023-04-12T10:12:43.580Z,27.83
2023-04-12T10:15:15.150Z,27.75
2023-04-12T10:17:50.850Z,28.15
2023-04-12T10:20:24.800Z,27.79
2023-04-12T10:22:58.483Z,27.52
2023-04-12T10:25:32.384Z,27.95
2023-04-12T10:28:25.629Z,27.80
2023-04-12T10:31:00.035Z,27.44
2023-04-12T10:33:33.095Z,28.28
2023-04-12T10:36:12.545Z,27.86
2023-04-12T10:38:50.047Z,28.05
2023-04-12T10:41:23.424Z,27.77
2023-04-12T10:43:54.769Z,28.11
2023-04-12T10:46:55.323Z,27.46
2023-04-12T10:49:26.812Z,28.22
2023-04-12T10:52:07.012Z,28.35
2023-04-12T10:54:38.159Z,28.53
2023-04-12T10:57:30.258Z,28.28
2023-04-12T11:00:00.964Z,28.34
2023-04-12T11:02:35.976Z,27.92
2023-04-12T11:05:12.704Z,27.88
2023-04-12T11:08:10.038Z,27.62
2023-04-12T11:10:52.963Z,28.40
2023-04-12T11:13:41.756Z,27.69
2023-04-12T11:16:16.177Z,27.93
2023-04-12T11:18:49.302Z,28.31
2023-04-12T11:21:20.589Z,27.96
2023-04-12T11:23:53.019Z,28.49
2023-04-12T11:26:24.122Z,27.81
2023-04-12T11:28:57.367Z,28.29
2023-04-12T11:31:27.995Z,28.18
2023-04-12T11:34:02.512Z,28.86
2023-04-12T11:36:32.986Z,28.04
2023-04-12T11:39:04.136Z,28.01
2023-04-12T11:41:34.854Z,28.45
2023-04-12T11:44:06.201Z,27.95
2023-04-12T11:46:37.366Z,28.53
2023-04-12T11:49:08.692Z,28.05
2023-04-12T11:51:39.081Z,28.19
2023-04-12T11:54:09.544Z,28.85
2023-04-12T11:56:40.532Z,28.54
2023-04-12T11:59:11.350Z,28.84
2023-04-12T12:01:41.856Z,28.21
2023-04-12T12:04:12.495Z,28.28
2023-04-12T12:06:43.428Z,28.12
2023-04-12T12:09:14.301Z,28.00
2023-04-12T12:11:45.275Z,28.27
2023-04-12T12:14:21.496Z,28.64
2023-04-12T12:17:00.068Z,28.79
2023-04-12T12:19:32.634Z,28.86
2023-04-12T12:22:20.565Z,29.12
2023-04-12T12:24:58.164Z,28.22
2023-04-12T12:27:43.403Z,28.36
2023-04-12T12:30:14.530Z,28.41
2023-04-12T12:32:47.466Z,28.02
2023-04-12T12:35:18.029Z,28.12
2023-04-12T12:37:54.093Z,28.03
2023-04-12T12:40:35.276Z,28.58
2023-04-12T12:43:06.050Z,29.25
2023-04-12T12:45:37.956Z,28.09
2023-04-12T12:48:08.483Z,28.83
2023-04-12T12:50:39.112Z,28.59
2023-04-12T12:53:10.055Z,28.55
2023-04-12T12:55:40.300Z,29.42
2023-04-12T12:58:10.690Z,28.82
2023-04-12T13:00:42.861Z,28.62
2023-04-12T13:03:13.546Z,28.20
2023-04-12T13:05:44.111Z,28.88
2023-04-12T13:08:14.710Z,29.12
2023-04-12T13:10:45.265Z,29.27
2023-04-12T13:13:15.987Z,28.69
2023-04-12T13:15:48.370Z,28.27
2023-04-12T13:18:18.882Z,28.62
2023-04-12T13:20:49.273Z,28.29
2023-04-12T13:23:19.672Z,28.46
2023-04-12T13:25:50.353Z,28.92
2023-04-12T13:28:22.199Z,28.81
2023-04-12T13:30:52.765Z,28.16
2023-04-12T13:33:23.289Z,29.16
2023-04-12T13:35:53.631Z,29.04
2023-04-12T13:38:24.348Z,28.38
2023-04-12T13:40:55.291Z,29.33
2023-04-12T13:43:25.991Z,28.18
2023-04-12T13:45:57.339Z,28.88
2023-04-12T13:48:27.883Z,28.00
2023-04-12T13:50:59.861Z,29.39
2023-04-12T13:53:32.450Z,28.91
2023-04-12T13:56:03.093Z,29.09
2023-04-12T13:58:33.673Z,29.09
2023-04-12T14:01:04.861Z,28.95
2023-04-12T14:03:35.431Z,28.44
2023-04-12T14:06:06.275Z,28.25
2023-04-12T14:08:36.952Z,28.59
2023-04-12T14:11:08.784Z,29.65
2023-04-12T14:13:40.048Z,28.88
2023-04-12T14:16:10.914Z,28.87
2023-04-12T14:18:41.368Z,29.54
2023-04-12T14:21:12.862Z,28.52
2023-04-12T14:23:43.403Z,29.43
2023-04-12T14:26:17.897Z,29.86
2023-04-12T14:28:51.491Z,29.50
2023-04-12T14:31:22.577Z,29.61
2023-04-12T14:33:53.369Z,29.00
2023-04-12T14:36:24.212Z,29.26
2023-04-12T14:38:54.650Z,29.54
2023-04-12T14:41:25.262Z,29.07
2023-04-12T14:43:55.866Z,28.92
2023-04-12T14:46:29.412Z,28.71
2023-04-12T14:49:02.576Z,29.73
2023-04-12T14:51:33.600Z,29.02
2023-04-12T14:54:04.258Z,29.88
2023-04-12T14:56:39.546Z,29.63
2023-04-12T14:59:13.915Z,29.49
2023-04-12T15:01:44.296Z,29.52
2023-04-12T15:04:14.781Z,30.06
2023-04-12T15:06:46.506Z,29.30
2023-04-12T15:09:19.096Z,29.44
2023-04-12T15:11:56.597Z,29.92
2023-04-12T15:14:29.683Z,29.49
2023-04-12T15:17:00.196Z,29.75
2023-04-12T15:19:32.771Z,30.65
2023-04-12T15:22:03.451Z,29.52
2023-04-12T15:24:35.345Z,30.36
2023-04-12T15:27:07.192Z,30.34
2023-04-12T15:29:41.541Z,30.86
2023-04-12T15:32:12.204Z,30.06
2023-04-12T15:34:42.809Z,30.15
2023-04-12T15:37:13.378Z,30.99
2023-04-12T15:39:44.000Z,30.62
2023-04-12T15:42:15.310Z,30.48
2023-04-12T15:44:46.935Z,30.83
2023-04-12T15:47:18.330Z,30.35
2023-04-12T15:49:49.499Z,30.72
2023-04-12T15:52:20.055Z,31.01
2023-04-12T15:54:51.246Z,30.12
2023-04-12T15:57:22.092Z,30.61
2023-04-12T15:59:54.375Z,31.09
2023-04-12T16:02:25.373Z,30.49
2023-04-12T16:04:57.278Z,30.75
2023-04-12T16:07:27.821Z,30.47
2023-04-12T16:09:58.765Z,30.51
2023-04-12T16:12:29.126Z,31.23
2023-04-12T16:15:01.016Z,31.19
2023-04-12T16:17:31.457Z,31.73
2023-04-12T16:20:02.369Z,31.81
2023-04-12T16:22:32.786Z,31.11
2023-04-12T16:25:03.326Z,30.73
2023-04-12T16:27:34.434Z,30.73
2023-04-12T16:30:05.789Z,31.40
2023-04-12T16:32:37.561Z,30.68
2023-04-12T16:35:09.651Z,31.63
2023-04-12T16:37:40.288Z,31.41
2023-04-12T16:40:13.837Z,31.64
2023-04-12T16:42:45.419Z,31.13
2023-04-12T16:45:16.475Z,31.36
2023-04-12T16:47:48.983Z,31.09
2023-04-12T16:50:19.593Z,31.96
2023-04-12T16:52:50.024Z,31.21
2023-04-12T16:55:21.323Z,31.00
2023-04-12T16:57:54.622Z,31.78
2023-04-12T17:00:26.898Z,31.21
2023-04-12T17:02:58.024Z,31.92
2023-04-12T17:05:28.736Z,31.22
2023-04-12T17:07:59.567Z,31.57
2023-04-12T17:10:30.785Z,31.62
2023-04-12T17:13:01.359Z,31.53
2023-04-12T17:15:32.896Z,32.23
2023-04-12T17:18:08.175Z,32.27
2023-04-12T17:20:40.501Z,32.39
2023-04-12T17:23:11.915Z,32.24
2023-04-12T17:25:43.273Z,31.23
2023-04-12T17:28:14.595Z,31.43
2023-04-12T17:30:45.537Z,32.65
2023-04-12T17:33:19.418Z,31.58
2023-04-12T17:35:50.129Z,32.50
2023-04-12T17:38:20.579Z,31.62
2023-04-12T17:40:51.300Z,32.20
2023-04-12T17:43:21.819Z,31.99
2023-04-12T17:45:52.680Z,32.50
2023-04-12T17:48:23.274Z,31.75
2023-04-12T17:50:53.892Z,31.75
2023-04-12T17:53:24.367Z,32.38
2023-04-12T17:55:54.716Z,32.68
2023-04-12T17:58:25.319Z,32.23
2023-04-12T18:00:55.847Z,32.17
2023-04-12T18:03:26.713Z,31.87
2023-04-12T18:05:57.646Z,32.52
2023-04-12T18:08:28.680Z,32.55
2023-04-12T18:10:59.454Z,32.58
2023-04-12T18:13:30.224Z,32.91
2023-04-12T18:16:00.884Z,33.01
2023-04-12T18:18:31.344Z,32.75
2023-04-12T18:21:06.198Z,31.94
2023-04-12T18:23:37.469Z,32.92
2023-04-12T18:26:08.441Z,32.58
2023-04-12T18:28:40.849Z,32.88
2023-04-12T18:31:11.453Z,32.37
2023-04-12T18:33:45.028Z,32.44
2023-04-12T18:36:15.766Z,32.57
2023-04-12T18:38:46.661Z,32.42
2023-04-12T18:41:17.784Z,32.87
2023-04-12T18:43:48.419Z,32.40
2023-04-12T18:46:20.116Z,32.45
2023-04-12T18:48:53.664Z,33.10
2023-04-12T18:51:24.520Z,32.40
2023-04-12T18:53:55.096Z,32.67
2023-04-12T18:56:25.975Z,33.15
2023-04-12T18:58:58.597Z,33.27
2023-04-12T19:01:29.729Z,32.41
2023-04-12T19:04:02.788Z,32.92
2023-04-12T19:06:33.866Z,32.97
2023-04-12T19:09:05.409Z,33.21
2023-04-12T19:11:37.087Z,32.56
2023-04-12T19:14:09.037Z,32.44
2023-04-12T19:16:39.855Z,33.51
2023-04-12T19:19:10.258Z,32.83
2023-04-12T19:21:40.837Z,33.22
2023-04-12T19:24:11.217Z,32.83
2023-04-12T19:26:48.322Z,33.38
2023-04-12T19:29:20.309Z,32.66
2023-04-12T19:31:52.570Z,33.53
2023-04-12T19:34:23.253Z,33.08
2023-04-12T19:36:53.591Z,33.05
2023-04-12T19:39:25.390Z,33.12
2023-04-12T19:41:56.218Z,32.90
2023-04-12T19:44:28.096Z,33.62
2023-04-12T19:46:59.060Z,33.44
2023-04-12T19:49:29.633Z,33.48
2023-04-12T19:52:00.491Z,33.13
2023-04-12T19:54:31.632Z,33.32
2023-04-12T19:57:02.142Z,33.89
2023-04-12T19:59:35.384Z,33.53
2023-04-12T20:02:05.196Z,34.03
2023-04-12T20:04:35.871Z,33.57
2023-04-12T20:07:06.462Z,33.54
2023-04-12T20:09:37.474Z,33.65
2023-04-12T20:12:08.721Z,34.11
2023-04-12T20:14:39.983Z,33.19
2023-04-12T20:17:11.916Z,33.77
2023-04-12T20:19:42.427Z,33.66
2023-04-12T20:22:13.851Z,33.25
2023-04-12T20:24:44.408Z,34.17
2023-04-12T20:27:18.959Z,33.61
2023-04-12T20:29:49.774Z,34.28
2023-04-12T20:32:20.613Z,33.77
2023-04-12T20:34:51.476Z,33.88
2023-04-12T20:37:21.930Z,33.72
2023-04-12T20:39:53.117Z,33.93
2023-04-12T20:42:24.461Z,34.33
2023-04-12T20:44:55.984Z,33.63
2023-04-12T20:47:27.195Z,33.68
2023-04-12T20:49:57.900Z,33.65
2023-04-12T20:52:29.126Z,34.08
2023-04-12T20:54:59.513Z,33.47
2023-04-12T20:57:30.634Z,33.71
2023-04-12T21:00:01.113Z,33.47
2023-04-12T21:02:32.506Z,34.06
2023-04-12T21:05:02.961Z,33.52
2023-04-12T21:07:33.635Z,33.75
2023-04-12T21:10:04.006Z,33.75
2023-04-12T21:12:36.350Z,34.08
2023-04-12T21:15:09.123Z,34.12
2023-04-12T21:17:39.677Z,34.11
2023-04-12T21:20:18.143Z,34.16
2023-04-12T21:22:53.654Z,34.63
2023-04-12T21:25:24.449Z,33.90
2023-04-12T21:27:54.912Z,34.58
2023-04-12T21:30:25.398Z,34.13
2023-04-12T21:32:56.494Z,34.65
2023-04-12T21:35:27.400Z,33.88
2023-04-12T21:37:59.140Z,34.33
2023-04-12T21:40:29.672Z,34.43
2023-04-12T21:43:00.286Z,34.58
2023-04-12T21:45:30.769Z,34.60
2023-04-12T21:48:01.759Z,34.00
2023-04-12T21:50:32.227Z,34.66
2023-04-12T21:53:02.676Z,33.91
2023-04-12T21:55:33.143Z,34.14
2023-04-12T21:58:03.714Z,34.34
2023-04-12T22:00:34.751Z,34.53
2023-04-12T22:03:05.692Z,34.72
2023-04-12T22:05:37.444Z,34.13
2023-04-12T22:08:11.944Z,34.61
2023-04-12T22:10:42.387Z,34.66
2023-04-12T22:13:14.135Z,34.20
2023-04-12T22:15:44.542Z,33.99
2023-04-12T22:18:15.651Z,34.38
2023-04-12T22:20:46.223Z,34.03
2023-04-12T22:23:19.343Z,34.46
2023-04-12T22:25:51.095Z,34.82
2023-04-12T22:28:23.801Z,34.08
2023-04-12T22:30:54.318Z,34.68
2023-04-12T22:33:25.445Z,34.44
2023-04-12T22:35:56.559Z,34.66
2023-04-12T22:38:27.464Z,34.42
2023-04-12T22:41:03.450Z,35.05
2023-04-12T22:43:44.817Z,35.43
2023-04-12T22:46:20.099Z,34.50
2023-04-12T22:48:52.595Z,34.61
2023-04-12T22:51:23.149Z,35.43
2023-04-12T22:53:54.494Z,34.92
2023-04-12T22:56:25.560Z,34.95
2023-04-12T22:58:57.207Z,34.36
2023-04-12T23:01:27.777Z,35.05
2023-04-12T23:04:05.847Z,35.41
2023-04-12T23:06:36.476Z,36.19
2023-04-12T23:09:07.444Z,36.48
2023-04-12T23:11:43.257Z,35.17
2023-04-12T23:14:14.462Z,34.78
2023-04-12T23:16:46.497Z,34.67
2023-04-12T23:19:18.121Z,35.13
2023-04-12T23:21:48.906Z,35.40
2023-04-12T23:24:20.106Z,34.80
2023-04-12T23:26:52.460Z,35.22
2023-04-12T23:29:23.233Z,35.12
2023-04-12T23:31:54.177Z,34.60
2023-04-12T23:34:24.667Z,35.00
2023-04-12T23:36:56.561Z,35.44
2023-04-12T23:39:27.064Z,36.36
2023-04-12T23:41:57.329Z,36.09
2023-04-12T23:44:29.475Z,35.89
2023-04-12T23:47:00.557Z,36.36
2023-04-12T23:49:30.774Z,37.06
2023-04-12T23:52:01.207Z,37.55
2023-04-12T23:54:32.578Z,36.10
2023-04-12T23:57:03.293Z,35.88
2023-04-12T23:59:33.688Z,36.94
